sensor_id;sensor_type;location;lat;lon;timestamp;P1;durP1;ratioP1;P2;durP2;ratioP2
72882;SDS011;61017;37.812;-122.286;2023-09-30T00:00:39;1.10;;;0.82;;
72882;SDS011;61017;37.812;-122.286;2023-09-30T00:02:10;1.42;;;0.88;;
72882;SDS011;61017;37.812;-122.286;2023-09-30T00:03:42;1.52;;;0.90;;
72882;SDS011;61017;37.812;-122.286;2023-09-30T00:05:13;1.42;;;0.90;;
72882;SDS011;61017;37.812;-122.286;2023-09-30T00:06:45;1.00;;;0.70;;
72882;SDS011;61017;37.812;-122.286;2023-09-30T00:08:16;1.23;;;0.82;;
72882;SDS011;61017;37.812;-122.286;2023-09-30T00:09:48;1.65;;;0.90;;
72882;SDS011;61017;37.812;-122.286;2023-09-30T00:11:20;0.73;;;0.60;;
72882;SDS011;61017;37.812;-122.286;2023-09-30T00:12:51;1.83;;;0.95;;
72882;SDS011;61017;37.812;-122.286;2023-09-30T00:14:23;1.55;;;0.70;;
72882;SDS011;61017;37.812;-122.286;2023-09-30T00:15:54;1.05;;;0.70;;
72882;SDS011;61017;37.812;-122.286;2023-09-30T00:17:26;1.13;;;0.80;;
72882;SDS011;61017;37.812;-122.286;2023-09-30T00:18:57;1.02;;;0.80;;
72882;SDS011;61017;37.812;-122.286;2023-09-30T00:20:29;1.52;;;0.80;;
72882;SDS011;61017;37.812;-122.286;2023-09-30T00:22:01;1.55;;;0.80;;
72882;SDS011;61017;37.812;-122.286;2023-09-30T00:23:32;1.25;;;0.80;;
72882;SDS011;61017;37.812;-122.286;2023-09-30T00:25:04;1.35;;;0.80;;
72882;SDS011;61017;37.812;-122.286;2023-09-30T00:26:36;1.45;;;0.80;;
72882;SDS011;61017;37.812;-122.286;2023-09-30T00:28:08;1.48;;;0.80;;
72882;SDS011;61017;37.812;-122.286;2023-09-30T00:29:39;1.30;;;0.80;;
72882;SDS011;61017;37.812;-122.286;2023-09-30T00:31:11;1.45;;;0.60;;
72882;SDS011;61017;37.812;-122.286;2023-09-30T00:32:42;1.75;;;0.90;;
72882;SDS011;61017;37.812;-122.286;2023-09-30T00:34:14;1.30;;;0.77;;
72882;SDS011;61017;37.812;-122.286;2023-09-30T00:35:45;3.20;;;0.90;;
72882;SDS011;61017;37.812;-122.286;2023-09-30T00:37:17;1.38;;;0.77;;
72882;SDS011;61017;37.812;-122.286;2023-09-30T00:38:49;1.50;;;0.80;;
72882;SDS011;61017;37.812;-122.286;2023-09-30T00:40:20;1.75;;;0.75;;
72882;SDS011;61017;37.812;-122.286;2023-09-30T00:41:52;1.35;;;0.80;;
72882;SDS011;61017;37.812;-122.286;2023-09-30T00:43:23;1.70;;;0.80;;
72882;SDS011;61017;37.812;-122.286;2023-09-30T00:44:55;1.92;;;0.70;;
72882;SDS011;61017;37.812;-122.286;2023-09-30T00:46:28;1.27;;;0.90;;
72882;SDS011;61017;37.812;-122.286;2023-09-30T00:48:02;1.73;;;0.75;;
72882;SDS011;61017;37.812;-122.286;2023-09-30T00:49:33;2.80;;;0.80;;
72882;SDS011;61017;37.812;-122.286;2023-09-30T00:51:05;1.48;;;0.70;;
72882;SDS011;61017;37.812;-122.286;2023-09-30T00:52:37;1.35;;;0.98;;
72882;SDS011;61017;37.812;-122.286;2023-09-30T00:54:10;1.50;;;0.90;;
72882;SDS011;61017;37.812;-122.286;2023-09-30T00:55:41;1.88;;;0.80;;
72882;SDS011;61017;37.812;-122.286;2023-09-30T00:57:13;2.05;;;1.05;;
72882;SDS011;61017;37.812;-122.286;2023-09-30T00:58:45;2.05;;;1.10;;
72882;SDS011;61017;37.812;-122.286;2023-09-30T01:01:49;1.58;;;0.80;;
72882;SDS011;61017;37.812;-122.286;2023-09-30T01:03:22;1.70;;;1.10;;
72882;SDS011;61017;37.812;-122.286;2023-09-30T01:04:53;2.15;;;1.10;;
72882;SDS011;61017;37.812;-122.286;2023-09-30T01:06:26;2.15;;;1.00;;
72882;SDS011;61017;37.812;-122.286;2023-09-30T01:07:58;2.28;;;1.05;;
72882;SDS011;61017;37.812;-122.286;2023-09-30T01:09:32;3.50;;;1.10;;
72882;SDS011;61017;37.812;-122.286;2023-09-30T01:11:04;2.53;;;1.20;;
72882;SDS011;61017;37.812;-122.286;2023-09-30T01:12:36;3.00;;;1.15;;
72882;SDS011;61017;37.812;-122.286;2023-09-30T01:14:27;2.53;;;1.20;;
72882;SDS011;61017;37.812;-122.286;2023-09-30T01:16:06;2.08;;;1.30;;
72882;SDS011;61017;37.812;-122.286;2023-09-30T01:17:39;2.65;;;1.20;;
72882;SDS011;61017;37.812;-122.286;2023-09-30T01:19:10;3.83;;;1.30;;
72882;SDS011;61017;37.812;-122.286;2023-09-30T01:20:42;3.78;;;1.20;;
72882;SDS011;61017;37.812;-122.286;2023-09-30T01:22:13;2.92;;;1.27;;
72882;SDS011;61017;37.812;-122.286;2023-09-30T01:23:45;2.72;;;1.30;;
72882;SDS011;61017;37.812;-122.286;2023-09-30T01:25:16;3.90;;;1.40;;
72882;SDS011;61017;37.812;-122.286;2023-09-30T01:26:48;2.67;;;1.17;;
72882;SDS011;61017;37.812;-122.286;2023-09-30T01:28:19;2.75;;;1.27;;
72882;SDS011;61017;37.812;-122.286;2023-09-30T01:29:51;3.65;;;1.40;;
72882;SDS011;61017;37.812;-122.286;2023-09-30T01:31:22;3.20;;;1.17;;
72882;SDS011;61017;37.812;-122.286;2023-09-30T01:32:54;3.97;;;1.30;;
72882;SDS011;61017;37.812;-122.286;2023-09-30T01:34:25;3.25;;;1.27;;
72882;SDS011;61017;37.812;-122.286;2023-09-30T01:35:57;3.20;;;1.40;;
72882;SDS011;61017;37.812;-122.286;2023-09-30T01:37:29;4.72;;;1.45;;
72882;SDS011;61017;37.812;-122.286;2023-09-30T01:39:01;4.30;;;1.30;;
72882;SDS011;61017;37.812;-122.286;2023-09-30T01:40:33;2.97;;;1.30;;
72882;SDS011;61017;37.812;-122.286;2023-09-30T01:42:04;3.22;;;1.40;;
72882;SDS011;61017;37.812;-122.286;2023-09-30T01:43:36;3.50;;;1.33;;
72882;SDS011;61017;37.812;-122.286;2023-09-30T01:45:07;4.78;;;1.40;;
72882;SDS011;61017;37.812;-122.286;2023-09-30T01:46:39;3.53;;;1.37;;
72882;SDS011;61017;37.812;-122.286;2023-09-30T01:48:11;5.70;;;1.42;;
72882;SDS011;61017;37.812;-122.286;2023-09-30T01:49:42;4.10;;;1.60;;
72882;SDS011;61017;37.812;-122.286;2023-09-30T01:51:14;2.60;;;1.23;;
72882;SDS011;61017;37.812;-122.286;2023-09-30T01:52:45;3.83;;;1.27;;
72882;SDS011;61017;37.812;-122.286;2023-09-30T01:54:17;4.43;;;1.50;;
72882;SDS011;61017;37.812;-122.286;2023-09-30T01:55:48;4.53;;;1.45;;
72882;SDS011;61017;37.812;-122.286;2023-09-30T01:57:20;4.97;;;1.55;;
72882;SDS011;61017;37.812;-122.286;2023-09-30T01:58:51;4.45;;;1.38;;
72882;SDS011;61017;37.812;-122.286;2023-09-30T02:00:23;2.63;;;1.10;;
72882;SDS011;61017;37.812;-122.286;2023-09-30T02:01:54;4.45;;;1.58;;
72882;SDS011;61017;37.812;-122.286;2023-09-30T02:03:26;2.95;;;1.35;;
72882;SDS011;61017;37.812;-122.286;2023-09-30T02:04:57;3.05;;;1.30;;
72882;SDS011;61017;37.812;-122.286;2023-09-30T02:06:29;7.07;;;1.60;;
72882;SDS011;61017;37.812;-122.286;2023-09-30T02:08:00;3.95;;;1.40;;
72882;SDS011;61017;37.812;-122.286;2023-09-30T02:09:32;5.55;;;1.45;;
72882;SDS011;61017;37.812;-122.286;2023-09-30T02:11:03;4.32;;;1.65;;
72882;SDS011;61017;37.812;-122.286;2023-09-30T02:12:35;4.03;;;1.30;;
72882;SDS011;61017;37.812;-122.286;2023-09-30T02:14:06;4.65;;;1.70;;
72882;SDS011;61017;37.812;-122.286;2023-09-30T02:15:40;5.65;;;1.50;;
72882;SDS011;61017;37.812;-122.286;2023-09-30T02:17:12;4.00;;;1.48;;
72882;SDS011;61017;37.812;-122.286;2023-09-30T02:18:43;5.13;;;1.50;;
72882;SDS011;61017;37.812;-122.286;2023-09-30T02:20:15;4.10;;;1.40;;
72882;SDS011;61017;37.812;-122.286;2023-09-30T02:21:47;5.38;;;1.60;;
72882;SDS011;61017;37.812;-122.286;2023-09-30T02:23:18;3.35;;;1.35;;
72882;SDS011;61017;37.812;-122.286;2023-09-30T02:24:50;6.53;;;1.73;;
72882;SDS011;61017;37.812;-122.286;2023-09-30T02:26:21;5.30;;;1.60;;
72882;SDS011;61017;37.812;-122.286;2023-09-30T02:27:53;4.05;;;1.50;;
72882;SDS011;61017;37.812;-122.286;2023-09-30T02:29:25;4.35;;;1.35;;
72882;SDS011;61017;37.812;-122.286;2023-09-30T02:30:56;6.03;;;1.80;;
72882;SDS011;61017;37.812;-122.286;2023-09-30T02:32:29;5.45;;;1.70;;
72882;SDS011;61017;37.812;-122.286;2023-09-30T02:34:01;5.25;;;1.50;;
72882;SDS011;61017;37.812;-122.286;2023-09-30T02:35:32;5.47;;;1.42;;
72882;SDS011;61017;37.812;-122.286;2023-09-30T02:37:04;4.15;;;1.60;;
72882;SDS011;61017;37.812;-122.286;2023-09-30T02:38:36;5.55;;;1.60;;
72882;SDS011;61017;37.812;-122.286;2023-09-30T02:40:07;6.22;;;1.70;;
72882;SDS011;61017;37.812;-122.286;2023-09-30T02:41:39;4.83;;;1.70;;
72882;SDS011;61017;37.812;-122.286;2023-09-30T02:43:11;3.85;;;1.45;;
72882;SDS011;61017;37.812;-122.286;2023-09-30T02:44:42;5.30;;;1.50;;
72882;SDS011;61017;37.812;-122.286;2023-09-30T02:46:14;5.90;;;1.50;;
72882;SDS011;61017;37.812;-122.286;2023-09-30T02:47:45;3.80;;;1.50;;
72882;SDS011;61017;37.812;-122.286;2023-09-30T02:49:17;6.28;;;1.75;;
72882;SDS011;61017;37.812;-122.286;2023-09-30T02:50:49;4.60;;;1.70;;
72882;SDS011;61017;37.812;-122.286;2023-09-30T02:52:20;3.92;;;1.40;;
72882;SDS011;61017;37.812;-122.286;2023-09-30T02:53:52;6.15;;;1.73;;
72882;SDS011;61017;37.812;-122.286;2023-09-30T02:55:23;4.82;;;1.63;;
72882;SDS011;61017;37.812;-122.286;2023-09-30T02:56:54;6.93;;;2.10;;
72882;SDS011;61017;37.812;-122.286;2023-09-30T02:58:27;5.43;;;1.65;;
72882;SDS011;61017;37.812;-122.286;2023-09-30T02:59:58;4.15;;;1.55;;
72882;SDS011;61017;37.812;-122.286;2023-09-30T03:01:30;4.97;;;1.90;;
72882;SDS011;61017;37.812;-122.286;2023-09-30T03:03:02;3.58;;;1.40;;
72882;SDS011;61017;37.812;-122.286;2023-09-30T03:04:34;6.85;;;1.80;;
72882;SDS011;61017;37.812;-122.286;2023-09-30T03:06:05;5.60;;;1.70;;
72882;SDS011;61017;37.812;-122.286;2023-09-30T03:07:37;6.30;;;1.65;;
72882;SDS011;61017;37.812;-122.286;2023-09-30T03:09:08;8.57;;;1.77;;
72882;SDS011;61017;37.812;-122.286;2023-09-30T03:10:40;7.20;;;1.60;;
72882;SDS011;61017;37.812;-122.286;2023-09-30T03:12:12;15.73;;;2.38;;
72882;SDS011;61017;37.812;-122.286;2023-09-30T03:13:43;19.02;;;2.33;;
72882;SDS011;61017;37.812;-122.286;2023-09-30T03:15:15;15.90;;;2.20;;
72882;SDS011;61017;37.812;-122.286;2023-09-30T03:16:47;10.88;;;1.95;;
72882;SDS011;61017;37.812;-122.286;2023-09-30T03:18:19;9.10;;;1.90;;
72882;SDS011;61017;37.812;-122.286;2023-09-30T03:19:50;10.35;;;2.38;;
72882;SDS011;61017;37.812;-122.286;2023-09-30T03:21:22;12.68;;;1.80;;
72882;SDS011;61017;37.812;-122.286;2023-09-30T03:22:53;8.57;;;1.98;;
72882;SDS011;61017;37.812;-122.286;2023-09-30T03:24:25;10.13;;;2.00;;
72882;SDS011;61017;37.812;-122.286;2023-09-30T03:25:57;11.10;;;1.88;;
72882;SDS011;61017;37.812;-122.286;2023-09-30T03:27:29;11.52;;;2.00;;
72882;SDS011;61017;37.812;-122.286;2023-09-30T03:29:00;16.80;;;1.90;;
72882;SDS011;61017;37.812;-122.286;2023-09-30T03:30:32;8.80;;;2.00;;
72882;SDS011;61017;37.812;-122.286;2023-09-30T03:32:04;8.35;;;2.15;;
72882;SDS011;61017;37.812;-122.286;2023-09-30T03:33:35;9.35;;;1.88;;
72882;SDS011;61017;37.812;-122.286;2023-09-30T03:35:07;6.82;;;1.70;;
72882;SDS011;61017;37.812;-122.286;2023-09-30T03:36:40;6.93;;;1.65;;
72882;SDS011;61017;37.812;-122.286;2023-09-30T03:38:11;10.88;;;2.00;;
72882;SDS011;61017;37.812;-122.286;2023-09-30T03:39:43;8.00;;;1.80;;
72882;SDS011;61017;37.812;-122.286;2023-09-30T03:41:14;7.05;;;1.55;;
72882;SDS011;61017;37.812;-122.286;2023-09-30T03:42:46;9.77;;;1.80;;
72882;SDS011;61017;37.812;-122.286;2023-09-30T03:44:18;7.00;;;1.70;;
72882;SDS011;61017;37.812;-122.286;2023-09-30T03:45:50;8.05;;;1.50;;
72882;SDS011;61017;37.812;-122.286;2023-09-30T03:47:21;6.22;;;1.63;;
72882;SDS011;61017;37.812;-122.286;2023-09-30T03:48:53;4.82;;;1.60;;
72882;SDS011;61017;37.812;-122.286;2023-09-30T03:50:24;5.20;;;1.63;;
72882;SDS011;61017;37.812;-122.286;2023-09-30T03:51:56;5.47;;;1.67;;
72882;SDS011;61017;37.812;-122.286;2023-09-30T03:53:28;7.40;;;1.63;;
72882;SDS011;61017;37.812;-122.286;2023-09-30T03:55:02;6.07;;;1.63;;
72882;SDS011;61017;37.812;-122.286;2023-09-30T03:56:34;5.18;;;1.55;;
72882;SDS011;61017;37.812;-122.286;2023-09-30T03:58:05;5.53;;;1.70;;
72882;SDS011;61017;37.812;-122.286;2023-09-30T03:59:37;6.10;;;1.50;;
72882;SDS011;61017;37.812;-122.286;2023-09-30T04:01:09;4.82;;;1.80;;
72882;SDS011;61017;37.812;-122.286;2023-09-30T04:02:41;5.18;;;1.60;;
72882;SDS011;61017;37.812;-122.286;2023-09-30T04:04:12;4.57;;;1.58;;
72882;SDS011;61017;37.812;-122.286;2023-09-30T04:05:44;5.33;;;1.40;;
72882;SDS011;61017;37.812;-122.286;2023-09-30T04:07:16;4.18;;;1.48;;
72882;SDS011;61017;37.812;-122.286;2023-09-30T04:08:47;4.55;;;1.60;;
72882;SDS011;61017;37.812;-122.286;2023-09-30T04:10:19;5.28;;;1.50;;
72882;SDS011;61017;37.812;-122.286;2023-09-30T04:11:50;5.07;;;1.60;;
72882;SDS011;61017;37.812;-122.286;2023-09-30T04:13:22;3.45;;;1.50;;
72882;SDS011;61017;37.812;-122.286;2023-09-30T04:14:53;5.20;;;1.48;;
72882;SDS011;61017;37.812;-122.286;2023-09-30T04:16:25;5.60;;;1.70;;
72882;SDS011;61017;37.812;-122.286;2023-09-30T04:17:56;3.95;;;1.55;;
72882;SDS011;61017;37.812;-122.286;2023-09-30T04:19:28;5.40;;;1.65;;
72882;SDS011;61017;37.812;-122.286;2023-09-30T04:20:59;4.70;;;1.77;;
72882;SDS011;61017;37.812;-122.286;2023-09-30T04:22:31;6.55;;;1.50;;
72882;SDS011;61017;37.812;-122.286;2023-09-30T04:24:02;4.03;;;1.42;;
72882;SDS011;61017;37.812;-122.286;2023-09-30T04:27:06;4.53;;;1.52;;
72882;SDS011;61017;37.812;-122.286;2023-09-30T04:28:38;5.05;;;1.77;;
72882;SDS011;61017;37.812;-122.286;2023-09-30T04:30:09;4.57;;;1.70;;
72882;SDS011;61017;37.812;-122.286;2023-09-30T04:31:41;4.50;;;1.42;;
72882;SDS011;61017;37.812;-122.286;2023-09-30T04:33:12;5.68;;;1.75;;
72882;SDS011;61017;37.812;-122.286;2023-09-30T04:34:44;6.10;;;1.90;;
72882;SDS011;61017;37.812;-122.286;2023-09-30T04:36:15;5.60;;;1.63;;
72882;SDS011;61017;37.812;-122.286;2023-09-30T04:37:47;4.85;;;1.52;;
72882;SDS011;61017;37.812;-122.286;2023-09-30T04:39:19;4.75;;;1.58;;
72882;SDS011;61017;37.812;-122.286;2023-09-30T04:40:50;3.95;;;1.48;;
72882;SDS011;61017;37.812;-122.286;2023-09-30T04:42:22;4.40;;;1.35;;
72882;SDS011;61017;37.812;-122.286;2023-09-30T04:43:54;4.32;;;1.63;;
72882;SDS011;61017;37.812;-122.286;2023-09-30T04:45:25;4.35;;;1.50;;
72882;SDS011;61017;37.812;-122.286;2023-09-30T04:46:57;4.43;;;1.53;;
72882;SDS011;61017;37.812;-122.286;2023-09-30T04:48:29;3.95;;;1.40;;
72882;SDS011;61017;37.812;-122.286;2023-09-30T04:50:00;4.80;;;1.58;;
72882;SDS011;61017;37.812;-122.286;2023-09-30T04:51:32;4.15;;;1.70;;
72882;SDS011;61017;37.812;-122.286;2023-09-30T04:53:03;6.47;;;1.83;;
72882;SDS011;61017;37.812;-122.286;2023-09-30T04:54:35;4.93;;;1.35;;
72882;SDS011;61017;37.812;-122.286;2023-09-30T04:56:06;4.13;;;1.50;;
72882;SDS011;61017;37.812;-122.286;2023-09-30T04:57:38;4.00;;;1.40;;
72882;SDS011;61017;37.812;-122.286;2023-09-30T04:59:09;5.82;;;1.77;;
72882;SDS011;61017;37.812;-122.286;2023-09-30T05:00:42;5.38;;;1.52;;
72882;SDS011;61017;37.812;-122.286;2023-09-30T05:02:13;3.63;;;1.50;;
72882;SDS011;61017;37.812;-122.286;2023-09-30T05:03:45;4.38;;;1.60;;
72882;SDS011;61017;37.812;-122.286;2023-09-30T05:05:16;4.90;;;1.60;;
72882;SDS011;61017;37.812;-122.286;2023-09-30T05:06:48;5.88;;;1.63;;
72882;SDS011;61017;37.812;-122.286;2023-09-30T05:08:19;7.13;;;1.77;;
72882;SDS011;61017;37.812;-122.286;2023-09-30T05:09:51;4.53;;;1.43;;
72882;SDS011;61017;37.812;-122.286;2023-09-30T05:11:23;5.00;;;1.40;;
72882;SDS011;61017;37.812;-122.286;2023-09-30T05:12:55;4.82;;;1.52;;
72882;SDS011;61017;37.812;-122.286;2023-09-30T05:14:26;6.03;;;1.50;;
72882;SDS011;61017;37.812;-122.286;2023-09-30T05:15:58;4.53;;;1.55;;
72882;SDS011;61017;37.812;-122.286;2023-09-30T05:17:30;3.95;;;1.60;;
72882;SDS011;61017;37.812;-122.286;2023-09-30T05:19:01;5.30;;;1.80;;
72882;SDS011;61017;37.812;-122.286;2023-09-30T05:20:33;4.90;;;1.35;;
72882;SDS011;61017;37.812;-122.286;2023-09-30T05:22:04;3.25;;;1.23;;
72882;SDS011;61017;37.812;-122.286;2023-09-30T05:23:36;4.57;;;1.50;;
72882;SDS011;61017;37.812;-122.286;2023-09-30T05:25:08;4.60;;;1.50;;
72882;SDS011;61017;37.812;-122.286;2023-09-30T05:26:40;5.25;;;1.38;;
72882;SDS011;61017;37.812;-122.286;2023-09-30T05:28:11;4.00;;;1.45;;
72882;SDS011;61017;37.812;-122.286;2023-09-30T05:29:43;4.63;;;1.38;;
72882;SDS011;61017;37.812;-122.286;2023-09-30T05:31:14;3.47;;;1.33;;
72882;SDS011;61017;37.812;-122.286;2023-09-30T05:32:46;4.45;;;1.45;;
72882;SDS011;61017;37.812;-122.286;2023-09-30T05:34:17;3.85;;;1.50;;
72882;SDS011;61017;37.812;-122.286;2023-09-30T05:35:49;4.50;;;1.60;;
72882;SDS011;61017;37.812;-122.286;2023-09-30T05:37:21;5.55;;;1.67;;
72882;SDS011;61017;37.812;-122.286;2023-09-30T05:38:52;6.83;;;1.70;;
72882;SDS011;61017;37.812;-122.286;2023-09-30T05:40:25;4.30;;;1.45;;
72882;SDS011;61017;37.812;-122.286;2023-09-30T05:41:57;4.75;;;1.50;;
72882;SDS011;61017;37.812;-122.286;2023-09-30T05:43:29;6.00;;;1.60;;
72882;SDS011;61017;37.812;-122.286;2023-09-30T05:45:00;4.32;;;1.50;;
72882;SDS011;61017;37.812;-122.286;2023-09-30T05:46:32;3.88;;;1.67;;
72882;SDS011;61017;37.812;-122.286;2023-09-30T05:48:04;4.20;;;1.48;;
72882;SDS011;61017;37.812;-122.286;2023-09-30T05:49:36;4.90;;;2.00;;
72882;SDS011;61017;37.812;-122.286;2023-09-30T05:51:07;5.03;;;1.70;;
72882;SDS011;61017;37.812;-122.286;2023-09-30T05:52:40;3.58;;;1.55;;
72882;SDS011;61017;37.812;-122.286;2023-09-30T05:54:12;4.80;;;1.60;;
72882;SDS011;61017;37.812;-122.286;2023-09-30T05:55:44;4.25;;;1.50;;
72882;SDS011;61017;37.812;-122.286;2023-09-30T05:57:15;4.20;;;1.45;;
72882;SDS011;61017;37.812;-122.286;2023-09-30T05:58:47;3.58;;;1.30;;
72882;SDS011;61017;37.812;-122.286;2023-09-30T06:00:18;3.67;;;1.50;;
72882;SDS011;61017;37.812;-122.286;2023-09-30T06:01:50;4.07;;;1.40;;
72882;SDS011;61017;37.812;-122.286;2023-09-30T06:03:21;4.63;;;1.58;;
72882;SDS011;61017;37.812;-122.286;2023-09-30T06:04:53;5.10;;;1.90;;
72882;SDS011;61017;37.812;-122.286;2023-09-30T06:06:25;4.88;;;1.52;;
72882;SDS011;61017;37.812;-122.286;2023-09-30T06:07:58;4.28;;;1.50;;
72882;SDS011;61017;37.812;-122.286;2023-09-30T06:09:31;4.45;;;1.75;;
72882;SDS011;61017;37.812;-122.286;2023-09-30T06:11:03;4.20;;;1.50;;
72882;SDS011;61017;37.812;-122.286;2023-09-30T06:12:35;4.82;;;1.67;;
72882;SDS011;61017;37.812;-122.286;2023-09-30T06:14:07;6.22;;;1.70;;
72882;SDS011;61017;37.812;-122.286;2023-09-30T06:15:39;3.70;;;1.50;;
72882;SDS011;61017;37.812;-122.286;2023-09-30T06:18:42;5.38;;;1.75;;
72882;SDS011;61017;37.812;-122.286;2023-09-30T06:20:13;5.57;;;1.63;;
72882;SDS011;61017;37.812;-122.286;2023-09-30T06:21:45;3.30;;;1.25;;
72882;SDS011;61017;37.812;-122.286;2023-09-30T06:23:17;4.40;;;1.58;;
72882;SDS011;61017;37.812;-122.286;2023-09-30T06:24:48;4.65;;;1.67;;
72882;SDS011;61017;37.812;-122.286;2023-09-30T06:26:20;5.07;;;1.63;;
72882;SDS011;61017;37.812;-122.286;2023-09-30T06:27:51;3.58;;;1.40;;
72882;SDS011;61017;37.812;-122.286;2023-09-30T06:29:24;5.05;;;1.73;;
72882;SDS011;61017;37.812;-122.286;2023-09-30T06:30:55;4.10;;;1.60;;
72882;SDS011;61017;37.812;-122.286;2023-09-30T06:32:27;3.92;;;1.23;;
72882;SDS011;61017;37.812;-122.286;2023-09-30T06:33:59;3.63;;;1.42;;
72882;SDS011;61017;37.812;-122.286;2023-09-30T06:35:30;3.58;;;1.50;;
72882;SDS011;61017;37.812;-122.286;2023-09-30T06:37:02;4.65;;;1.73;;
72882;SDS011;61017;37.812;-122.286;2023-09-30T06:38:33;5.85;;;1.63;;
72882;SDS011;61017;37.812;-122.286;2023-09-30T06:40:05;6.55;;;1.65;;
72882;SDS011;61017;37.812;-122.286;2023-09-30T06:43:08;4.05;;;1.63;;
72882;SDS011;61017;37.812;-122.286;2023-09-30T06:44:40;5.03;;;1.50;;
72882;SDS011;61017;37.812;-122.286;2023-09-30T06:46:12;5.00;;;1.52;;
72882;SDS011;61017;37.812;-122.286;2023-09-30T06:47:43;4.77;;;1.60;;
72882;SDS011;61017;37.812;-122.286;2023-09-30T06:49:15;4.32;;;1.63;;
72882;SDS011;61017;37.812;-122.286;2023-09-30T06:50:47;5.75;;;1.70;;
72882;SDS011;61017;37.812;-122.286;2023-09-30T06:52:19;5.50;;;1.48;;
72882;SDS011;61017;37.812;-122.286;2023-09-30T06:53:51;5.03;;;1.58;;
72882;SDS011;61017;37.812;-122.286;2023-09-30T06:55:22;5.05;;;1.50;;
72882;SDS011;61017;37.812;-122.286;2023-09-30T06:56:54;7.72;;;1.70;;
72882;SDS011;61017;37.812;-122.286;2023-09-30T06:58:25;5.10;;;1.60;;
72882;SDS011;61017;37.812;-122.286;2023-09-30T06:59:57;4.53;;;1.55;;
72882;SDS011;61017;37.812;-122.286;2023-09-30T07:01:29;3.47;;;1.50;;
72882;SDS011;61017;37.812;-122.286;2023-09-30T07:03:00;4.00;;;1.50;;
72882;SDS011;61017;37.812;-122.286;2023-09-30T07:04:31;3.55;;;1.50;;
72882;SDS011;61017;37.812;-122.286;2023-09-30T07:06:03;4.95;;;1.35;;
72882;SDS011;61017;37.812;-122.286;2023-09-30T07:07:35;4.55;;;1.60;;
72882;SDS011;61017;37.812;-122.286;2023-09-30T07:09:06;5.45;;;1.75;;
72882;SDS011;61017;37.812;-122.286;2023-09-30T07:10:38;3.53;;;1.30;;
72882;SDS011;61017;37.812;-122.286;2023-09-30T07:12:09;4.43;;;1.75;;
72882;SDS011;61017;37.812;-122.286;2023-09-30T07:13:41;3.63;;;1.45;;
72882;SDS011;61017;37.812;-122.286;2023-09-30T07:15:12;5.65;;;1.65;;
72882;SDS011;61017;37.812;-122.286;2023-09-30T07:16:44;5.43;;;1.70;;
72882;SDS011;61017;37.812;-122.286;2023-09-30T07:18:16;5.93;;;1.55;;
72882;SDS011;61017;37.812;-122.286;2023-09-30T07:19:47;4.78;;;1.65;;
72882;SDS011;61017;37.812;-122.286;2023-09-30T07:21:19;5.15;;;1.52;;
72882;SDS011;61017;37.812;-122.286;2023-09-30T07:22:50;5.00;;;1.52;;
72882;SDS011;61017;37.812;-122.286;2023-09-30T07:24:22;4.45;;;1.40;;
72882;SDS011;61017;37.812;-122.286;2023-09-30T07:25:53;4.38;;;1.52;;
72882;SDS011;61017;37.812;-122.286;2023-09-30T07:27:25;4.38;;;1.50;;
72882;SDS011;61017;37.812;-122.286;2023-09-30T07:28:56;5.22;;;1.58;;
72882;SDS011;61017;37.812;-122.286;2023-09-30T07:30:28;5.22;;;1.70;;
72882;SDS011;61017;37.812;-122.286;2023-09-30T07:31:59;5.00;;;1.70;;
72882;SDS011;61017;37.812;-122.286;2023-09-30T07:33:31;5.53;;;1.45;;
72882;SDS011;61017;37.812;-122.286;2023-09-30T07:35:03;5.95;;;1.85;;
72882;SDS011;61017;37.812;-122.286;2023-09-30T07:36:34;5.00;;;1.70;;
72882;SDS011;61017;37.812;-122.286;2023-09-30T07:38:06;6.53;;;1.73;;
72882;SDS011;61017;37.812;-122.286;2023-09-30T07:39:37;4.88;;;1.80;;
72882;SDS011;61017;37.812;-122.286;2023-09-30T07:41:09;5.05;;;1.77;;
72882;SDS011;61017;37.812;-122.286;2023-09-30T07:42:40;5.07;;;1.60;;
72882;SDS011;61017;37.812;-122.286;2023-09-30T07:44:12;5.40;;;1.60;;
72882;SDS011;61017;37.812;-122.286;2023-09-30T07:45:44;4.68;;;1.50;;
72882;SDS011;61017;37.812;-122.286;2023-09-30T07:47:15;4.25;;;1.58;;
72882;SDS011;61017;37.812;-122.286;2023-09-30T07:48:47;5.07;;;1.60;;
72882;SDS011;61017;37.812;-122.286;2023-09-30T07:50:18;5.40;;;1.52;;
72882;SDS011;61017;37.812;-122.286;2023-09-30T07:51:50;5.13;;;1.70;;
72882;SDS011;61017;37.812;-122.286;2023-09-30T07:53:21;5.03;;;1.50;;
72882;SDS011;61017;37.812;-122.286;2023-09-30T07:54:53;5.55;;;1.60;;
72882;SDS011;61017;37.812;-122.286;2023-09-30T07:56:24;3.47;;;1.30;;
72882;SDS011;61017;37.812;-122.286;2023-09-30T07:57:56;5.43;;;1.50;;
72882;SDS011;61017;37.812;-122.286;2023-09-30T07:59:28;4.83;;;1.30;;
72882;SDS011;61017;37.812;-122.286;2023-09-30T08:00:59;4.78;;;1.63;;
72882;SDS011;61017;37.812;-122.286;2023-09-30T08:02:31;3.90;;;1.30;;
72882;SDS011;61017;37.812;-122.286;2023-09-30T08:04:03;3.97;;;1.48;;
72882;SDS011;61017;37.812;-122.286;2023-09-30T08:05:34;4.75;;;1.42;;
72882;SDS011;61017;37.812;-122.286;2023-09-30T08:07:06;4.38;;;1.38;;
72882;SDS011;61017;37.812;-122.286;2023-09-30T08:08:37;3.88;;;1.50;;
72882;SDS011;61017;37.812;-122.286;2023-09-30T08:10:09;4.38;;;1.42;;
72882;SDS011;61017;37.812;-122.286;2023-09-30T08:11:41;3.90;;;1.33;;
72882;SDS011;61017;37.812;-122.286;2023-09-30T08:13:12;3.92;;;1.30;;
72882;SDS011;61017;37.812;-122.286;2023-09-30T08:14:44;3.58;;;1.23;;
72882;SDS011;61017;37.812;-122.286;2023-09-30T08:16:15;3.60;;;1.30;;
72882;SDS011;61017;37.812;-122.286;2023-09-30T08:17:47;3.92;;;1.40;;
72882;SDS011;61017;37.812;-122.286;2023-09-30T08:19:18;3.45;;;1.27;;
72882;SDS011;61017;37.812;-122.286;2023-09-30T08:20:50;2.90;;;1.30;;
72882;SDS011;61017;37.812;-122.286;2023-09-30T08:22:22;3.75;;;1.25;;
72882;SDS011;61017;37.812;-122.286;2023-09-30T08:23:53;2.70;;;1.20;;
72882;SDS011;61017;37.812;-122.286;2023-09-30T08:25:25;3.50;;;1.20;;
72882;SDS011;61017;37.812;-122.286;2023-09-30T08:26:56;3.35;;;1.20;;
72882;SDS011;61017;37.812;-122.286;2023-09-30T08:28:28;5.22;;;1.60;;
72882;SDS011;61017;37.812;-122.286;2023-09-30T08:29:59;3.08;;;1.13;;
72882;SDS011;61017;37.812;-122.286;2023-09-30T08:31:31;2.63;;;1.00;;
72882;SDS011;61017;37.812;-122.286;2023-09-30T08:33:02;3.53;;;1.23;;
72882;SDS011;61017;37.812;-122.286;2023-09-30T08:34:34;2.90;;;1.10;;
72882;SDS011;61017;37.812;-122.286;2023-09-30T08:36:06;2.45;;;1.10;;
72882;SDS011;61017;37.812;-122.286;2023-09-30T08:37:38;3.58;;;1.10;;
72882;SDS011;61017;37.812;-122.286;2023-09-30T08:39:10;3.45;;;1.40;;
72882;SDS011;61017;37.812;-122.286;2023-09-30T08:40:43;3.30;;;1.10;;
72882;SDS011;61017;37.812;-122.286;2023-09-30T08:42:15;3.13;;;1.25;;
72882;SDS011;61017;37.812;-122.286;2023-09-30T08:43:48;2.63;;;1.20;;
72882;SDS011;61017;37.812;-122.286;2023-09-30T08:45:20;2.67;;;1.00;;
72882;SDS011;61017;37.812;-122.286;2023-09-30T08:46:52;3.33;;;1.05;;
72882;SDS011;61017;37.812;-122.286;2023-09-30T08:48:27;2.28;;;1.13;;
72882;SDS011;61017;37.812;-122.286;2023-09-30T08:50:00;2.25;;;0.90;;
72882;SDS011;61017;37.812;-122.286;2023-09-30T08:51:36;3.25;;;0.95;;
72882;SDS011;61017;37.812;-122.286;2023-09-30T08:53:09;3.33;;;1.10;;
72882;SDS011;61017;37.812;-122.286;2023-09-30T08:54:43;2.33;;;1.08;;